sensor_id;sensor_type;location;lat;lon;timestamp;pressure;altitude;pressure_sealevel;temperature;humidity
71109;BME280;59614;51.012;-1.648;2023-02-01T00:01:18;101783.50;;;3.75;94.37
71109;BME280;59614;51.012;-1.648;2023-02-01T00:03:44;101786.94;;;3.74;93.88
71109;BME280;59614;51.012;-1.648;2023-02-01T00:06:09;101774.34;;;3.62;94.00
71109;BME280;59614;51.012;-1.648;2023-02-01T00:08:35;101776.13;;;3.63;93.99
71109;BME280;59614;51.012;-1.648;2023-02-01T00:11:03;101782.94;;;3.58;93.74
71109;BME280;59614;51.012;-1.648;2023-02-01T00:13:30;101779.88;;;3.45;93.90
71109;BME280;59614;51.012;-1.648;2023-02-01T00:16:07;101775.47;;;3.43;94.72
71109;BME280;59614;51.012;-1.648;2023-02-01T00:18:32;101776.88;;;3.59;94.57
71109;BME280;59614;51.012;-1.648;2023-02-01T00:20:58;101765.19;;;3.47;94.42
71109;BME280;59614;51.012;-1.648;2023-02-01T00:23:23;101773.09;;;3.50;95.09
71109;BME280;59614;51.012;-1.648;2023-02-01T00:25:49;101771.41;;;3.52;94.79
71109;BME280;59614;51.012;-1.648;2023-02-01T00:28:14;101769.56;;;3.48;94.35
71109;BME280;59614;51.012;-1.648;2023-02-01T00:30:40;101748.34;;;3.39;94.58
71109;BME280;59614;51.012;-1.648;2023-02-01T00:33:05;101755.66;;;3.49;94.87
71109;BME280;59614;51.012;-1.648;2023-02-01T00:35:30;101767.78;;;3.47;94.93
71109;BME280;59614;51.012;-1.648;2023-02-01T00:37:56;101761.28;;;3.62;94.68
71109;BME280;59614;51.012;-1.648;2023-02-01T00:40:24;101758.69;;;3.62;94.69
71109;BME280;59614;51.012;-1.648;2023-02-01T00:42:49;101758.94;;;3.69;93.94
71109;BME280;59614;51.012;-1.648;2023-02-01T00:45:15;101771.38;;;3.77;93.78
71109;BME280;59614;51.012;-1.648;2023-02-01T00:47:41;101771.63;;;3.84;93.32
71109;BME280;59614;51.012;-1.648;2023-02-01T00:50:07;101767.44;;;3.90;92.65
71109;BME280;59614;51.012;-1.648;2023-02-01T00:52:32;101768.03;;;4.08;92.35
71109;BME280;59614;51.012;-1.648;2023-02-01T00:54:58;101775.78;;;4.05;91.57
71109;BME280;59614;51.012;-1.648;2023-02-01T00:57:23;101779.66;;;3.91;91.99
71109;BME280;59614;51.012;-1.648;2023-02-01T00:59:49;101783.41;;;3.99;93.00
71109;BME280;59614;51.012;-1.648;2023-02-01T01:02:14;101776.56;;;4.02;92.29
71109;BME280;59614;51.012;-1.648;2023-02-01T01:04:40;101774.56;;;3.94;92.23
71109;BME280;59614;51.012;-1.648;2023-02-01T01:07:05;101779.78;;;3.94;92.18
71109;BME280;59614;51.012;-1.648;2023-02-01T01:09:31;101772.09;;;3.98;92.27
71109;BME280;59614;51.012;-1.648;2023-02-01T01:11:56;101761.69;;;4.00;91.65
71109;BME280;59614;51.012;-1.648;2023-02-01T01:14:22;101757.03;;;3.91;92.43
71109;BME280;59614;51.012;-1.648;2023-02-01T01:16:47;101754.91;;;3.79;92.98
71109;BME280;59614;51.012;-1.648;2023-02-01T01:19:12;101753.44;;;3.88;92.82
71109;BME280;59614;51.012;-1.648;2023-02-01T01:21:38;101755.22;;;3.89;93.17
71109;BME280;59614;51.012;-1.648;2023-02-01T01:24:03;101758.19;;;3.99;91.72
71109;BME280;59614;51.012;-1.648;2023-02-01T01:26:29;101756.44;;;4.00;92.17
71109;BME280;59614;51.012;-1.648;2023-02-01T01:28:56;101746.16;;;4.05;91.80
71109;BME280;59614;51.012;-1.648;2023-02-01T01:31:22;101747.41;;;3.90;91.70
71109;BME280;59614;51.012;-1.648;2023-02-01T01:33:49;101745.41;;;3.81;92.68
71109;BME280;59614;51.012;-1.648;2023-02-01T01:36:15;101723.75;;;3.85;92.89
71109;BME280;59614;51.012;-1.648;2023-02-01T01:38:41;101719.53;;;3.89;93.68
71109;BME280;59614;51.012;-1.648;2023-02-01T01:41:08;101721.16;;;3.85;93.58
71109;BME280;59614;51.012;-1.648;2023-02-01T01:46:16;101711.09;;;3.98;92.25
71109;BME280;59614;51.012;-1.648;2023-02-01T01:48:42;101723.97;;;3.92;92.17
71109;BME280;59614;51.012;-1.648;2023-02-01T01:51:10;101723.97;;;3.92;92.25
71109;BME280;59614;51.012;-1.648;2023-02-01T01:53:43;101732.84;;;3.97;92.52
71109;BME280;59614;51.012;-1.648;2023-02-01T01:56:11;101732.75;;;3.94;92.10
71109;BME280;59614;51.012;-1.648;2023-02-01T01:58:37;101737.78;;;3.88;92.54
71109;BME280;59614;51.012;-1.648;2023-02-01T02:01:02;101738.97;;;3.97;92.68
71109;BME280;59614;51.012;-1.648;2023-02-01T02:03:43;101734.56;;;3.96;92.36
71109;BME280;59614;51.012;-1.648;2023-02-01T02:09:00;101750.03;;;3.90;92.40
71109;BME280;59614;51.012;-1.648;2023-02-01T02:11:26;101745.97;;;3.98;92.02
71109;BME280;59614;51.012;-1.648;2023-02-01T02:13:53;101750.97;;;3.92;92.07
71109;BME280;59614;51.012;-1.648;2023-02-01T02:22:18;101742.06;;;3.85;92.76
71109;BME280;59614;51.012;-1.648;2023-02-01T02:36:01;101742.34;;;3.95;91.31
71109;BME280;59614;51.012;-1.648;2023-02-01T02:38:55;101751.09;;;3.95;91.11
71109;BME280;59614;51.012;-1.648;2023-02-01T02:45:00;101753.41;;;3.86;91.31
71109;BME280;59614;51.012;-1.648;2023-02-01T02:50:38;101753.16;;;4.06;91.52
71109;BME280;59614;51.012;-1.648;2023-02-01T02:53:34;101754.22;;;4.12;91.65
71109;BME280;59614;51.012;-1.648;2023-02-01T02:56:23;101753.84;;;4.29;91.64
71109;BME280;59614;51.012;-1.648;2023-02-01T02:59:09;101751.34;;;4.32;91.49
71109;BME280;59614;51.012;-1.648;2023-02-01T03:01:55;101754.09;;;4.37;91.64
71109;BME280;59614;51.012;-1.648;2023-02-01T03:04:39;101748.00;;;4.36;91.53
71109;BME280;59614;51.012;-1.648;2023-02-01T03:10:16;101742.22;;;4.48;90.84
71109;BME280;59614;51.012;-1.648;2023-02-01T03:12:43;101744.03;;;4.51;90.46
71109;BME280;59614;51.012;-1.648;2023-02-01T03:15:24;101748.38;;;4.48;90.91
71109;BME280;59614;51.012;-1.648;2023-02-01T03:17:52;101734.72;;;4.59;90.56
71109;BME280;59614;51.012;-1.648;2023-02-01T03:20:22;101736.44;;;4.58;91.12
71109;BME280;59614;51.012;-1.648;2023-02-01T03:22:51;101723.50;;;4.63;90.94
71109;BME280;59614;51.012;-1.648;2023-02-01T03:25:18;101728.78;;;4.64;90.36
71109;BME280;59614;51.012;-1.648;2023-02-01T03:27:56;101720.88;;;4.63;90.12
71109;BME280;59614;51.012;-1.648;2023-02-01T03:30:25;101729.91;;;4.74;89.89
71109;BME280;59614;51.012;-1.648;2023-02-01T03:32:54;101727.91;;;4.96;88.79
71109;BME280;59614;51.012;-1.648;2023-02-01T03:35:54;101718.22;;;4.92;88.65
71109;BME280;59614;51.012;-1.648;2023-02-01T03:40:56;101717.13;;;4.84;88.62
71109;BME280;59614;51.012;-1.648;2023-02-01T03:43:24;101730.69;;;4.70;89.32
71109;BME280;59614;51.012;-1.648;2023-02-01T03:45:58;101727.97;;;4.67;89.13
71109;BME280;59614;51.012;-1.648;2023-02-01T03:48:27;101726.09;;;4.63;89.29
71109;BME280;59614;51.012;-1.648;2023-02-01T03:50:57;101726.41;;;4.72;89.34
71109;BME280;59614;51.012;-1.648;2023-02-01T03:53:25;101729.41;;;4.56;89.96
71109;BME280;59614;51.012;-1.648;2023-02-01T03:55:52;101725.47;;;4.70;89.04
71109;BME280;59614;51.012;-1.648;2023-02-01T03:58:20;101723.25;;;4.86;89.02
71109;BME280;59614;51.012;-1.648;2023-02-01T04:00:57;101716.94;;;4.77;88.84
71109;BME280;59614;51.012;-1.648;2023-02-01T04:03:24;101716.66;;;4.67;88.89
71109;BME280;59614;51.012;-1.648;2023-02-01T04:05:51;101713.47;;;4.78;88.52
71109;BME280;59614;51.012;-1.648;2023-02-01T04:08:18;101699.44;;;4.75;88.50
71109;BME280;59614;51.012;-1.648;2023-02-01T04:10:43;101699.22;;;4.67;88.47
71109;BME280;59614;51.012;-1.648;2023-02-01T04:13:09;101695.75;;;4.68;88.46
71109;BME280;59614;51.012;-1.648;2023-02-01T04:15:34;101692.19;;;4.66;88.41
71109;BME280;59614;51.012;-1.648;2023-02-01T04:18:00;101702.31;;;4.54;88.85
71109;BME280;59614;51.012;-1.648;2023-02-01T04:20:26;101690.50;;;4.36;88.84
71109;BME280;59614;51.012;-1.648;2023-02-01T04:22:51;101676.47;;;4.34;89.28
71109;BME280;59614;51.012;-1.648;2023-02-01T04:25:17;101680.03;;;4.36;88.97
71109;BME280;59614;51.012;-1.648;2023-02-01T04:27:43;101678.69;;;4.20;89.21
71109;BME280;59614;51.012;-1.648;2023-02-01T04:30:08;101681.88;;;4.10;89.76
71109;BME280;59614;51.012;-1.648;2023-02-01T04:32:36;101680.16;;;4.12;90.10
71109;BME280;59614;51.012;-1.648;2023-02-01T04:35:01;101694.03;;;4.09;90.35
71109;BME280;59614;51.012;-1.648;2023-02-01T04:37:27;101692.25;;;4.08;90.04
71109;BME280;59614;51.012;-1.648;2023-02-01T04:39:52;101708.72;;;4.06;90.22
71109;BME280;59614;51.012;-1.648;2023-02-01T04:42:18;101704.38;;;4.06;89.80
71109;BME280;59614;51.012;-1.648;2023-02-01T04:44:43;101711.16;;;3.99;90.31
71109;BME280;59614;51.012;-1.648;2023-02-01T04:47:09;101706.91;;;4.03;89.83
71109;BME280;59614;51.012;-1.648;2023-02-01T04:49:34;101715.59;;;4.02;90.19
71109;BME280;59614;51.012;-1.648;2023-02-01T04:52:00;101719.22;;;4.07;90.30
71109;BME280;59614;51.012;-1.648;2023-02-01T04:54:25;101712.47;;;3.86;90.70
71109;BME280;59614;51.012;-1.648;2023-02-01T04:56:51;101717.72;;;3.86;91.50
71109;BME280;59614;51.012;-1.648;2023-02-01T04:59:16;101705.84;;;3.96;91.02
71109;BME280;59614;51.012;-1.648;2023-02-01T05:01:41;101701.94;;;4.11;90.31
71109;BME280;59614;51.012;-1.648;2023-02-01T05:04:07;101699.25;;;4.09;90.56
71109;BME280;59614;51.012;-1.648;2023-02-01T05:06:32;101695.94;;;4.15;90.52
71109;BME280;59614;51.012;-1.648;2023-02-01T05:08:58;101699.59;;;4.20;90.31
71109;BME280;59614;51.012;-1.648;2023-02-01T05:11:23;101703.09;;;4.21;90.77
71109;BME280;59614;51.012;-1.648;2023-02-01T05:14:07;101715.13;;;4.15;91.08
71109;BME280;59614;51.012;-1.648;2023-02-01T05:16:32;101709.00;;;4.15;90.81
71109;BME280;59614;51.012;-1.648;2023-02-01T05:18:58;101713.41;;;4.16;91.44
71109;BME280;59614;51.012;-1.648;2023-02-01T05:21:24;101708.38;;;4.22;91.13
71109;BME280;59614;51.012;-1.648;2023-02-01T05:23:49;101714.06;;;4.09;91.30
71109;BME280;59614;51.012;-1.648;2023-02-01T05:26:33;101719.31;;;4.10;91.60
71109;BME280;59614;51.012;-1.648;2023-02-01T05:28:59;101718.47;;;4.11;91.90
71109;BME280;59614;51.012;-1.648;2023-02-01T05:31:24;101708.03;;;4.11;92.51
71109;BME280;59614;51.012;-1.648;2023-02-01T05:33:50;101723.25;;;4.25;92.38
71109;BME280;59614;51.012;-1.648;2023-02-01T05:36:15;101728.38;;;4.22;92.33
71109;BME280;59614;51.012;-1.648;2023-02-01T05:38:41;101722.28;;;4.21;92.39
71109;BME280;59614;51.012;-1.648;2023-02-01T05:41:06;101721.38;;;4.21;92.13
71109;BME280;59614;51.012;-1.648;2023-02-01T05:43:32;101713.25;;;4.40;92.39
71109;BME280;59614;51.012;-1.648;2023-02-01T05:45:57;101719.28;;;4.38;92.13
71109;BME280;59614;51.012;-1.648;2023-02-01T05:48:23;101718.31;;;4.34;91.85
71109;BME280;59614;51.012;-1.648;2023-02-01T05:50:48;101723.31;;;4.28;92.55
71109;BME280;59614;51.012;-1.648;2023-02-01T05:53:13;101723.44;;;4.31;92.56
71109;BME280;59614;51.012;-1.648;2023-02-01T05:55:39;101713.75;;;4.27;93.18
71109;BME280;59614;51.012;-1.648;2023-02-01T05:58:05;101694.69;;;4.31;92.44
71109;BME280;59614;51.012;-1.648;2023-02-01T06:00:31;101688.72;;;4.35;92.96
71109;BME280;59614;51.012;-1.648;2023-02-01T06:02:56;101687.09;;;4.40;92.84
71109;BME280;59614;51.012;-1.648;2023-02-01T06:05:22;101680.91;;;4.37;92.89
71109;BME280;59614;51.012;-1.648;2023-02-01T06:07:47;101665.19;;;4.35;93.13
71109;BME280;59614;51.012;-1.648;2023-02-01T06:10:15;101659.28;;;4.42;92.37
71109;BME280;59614;51.012;-1.648;2023-02-01T06:12:41;101658.00;;;4.28;92.92
71109;BME280;59614;51.012;-1.648;2023-02-01T06:15:06;101659.19;;;4.39;93.44
71109;BME280;59614;51.012;-1.648;2023-02-01T06:17:32;101647.69;;;4.32;93.82
71109;BME280;59614;51.012;-1.648;2023-02-01T06:19:57;101645.81;;;4.28;93.48
71109;BME280;59614;51.012;-1.648;2023-02-01T06:22:23;101647.00;;;4.38;94.06
71109;BME280;59614;51.012;-1.648;2023-02-01T06:24:48;101644.19;;;4.32;93.80
71109;BME280;59614;51.012;-1.648;2023-02-01T06:27:14;101641.56;;;4.32;94.12
71109;BME280;59614;51.012;-1.648;2023-02-01T06:29:40;101645.28;;;4.40;94.02
71109;BME280;59614;51.012;-1.648;2023-02-01T06:32:05;101654.91;;;4.41;93.58
71109;BME280;59614;51.012;-1.648;2023-02-01T06:34:31;101656.53;;;4.38;93.98
71109;BME280;59614;51.012;-1.648;2023-02-01T06:36:56;101658.47;;;4.45;93.82
71109;BME280;59614;51.012;-1.648;2023-02-01T06:39:21;101661.06;;;4.43;93.55
71109;BME280;59614;51.012;-1.648;2023-02-01T06:41:48;101658.31;;;4.39;93.41
71109;BME280;59614;51.012;-1.648;2023-02-01T06:44:14;101664.25;;;4.33;94.03
71109;BME280;59614;51.012;-1.648;2023-02-01T06:46:40;101662.66;;;4.38;93.68
71109;BME280;59614;51.012;-1.648;2023-02-01T06:49:05;101659.25;;;4.41;93.14
71109;BME280;59614;51.012;-1.648;2023-02-01T06:51:31;101656.66;;;4.42;93.10
71109;BME280;59614;51.012;-1.648;2023-02-01T06:53:56;101658.66;;;4.21;94.01
71109;BME280;59614;51.012;-1.648;2023-02-01T06:56:22;101669.38;;;4.30;94.07
71109;BME280;59614;51.012;-1.648;2023-02-01T06:58:48;101667.66;;;4.30;94.43
71109;BME280;59614;51.012;-1.648;2023-02-01T07:01:14;101664.22;;;4.31;93.82
71109;BME280;59614;51.012;-1.648;2023-02-01T07:03:40;101666.88;;;4.33;93.61
71109;BME280;59614;51.012;-1.648;2023-02-01T07:06:06;101676.66;;;4.40;93.16
71109;BME280;59614;51.012;-1.648;2023-02-01T07:08:34;101669.44;;;4.31;93.47
71109;BME280;59614;51.012;-1.648;2023-02-01T07:11:06;101672.19;;;4.36;93.80
71109;BME280;59614;51.012;-1.648;2023-02-01T07:13:33;101672.19;;;4.36;93.24
71109;BME280;59614;51.012;-1.648;2023-02-01T07:16:03;101682.22;;;4.53;92.82
71109;BME280;59614;51.012;-1.648;2023-02-01T07:18:29;101677.16;;;4.27;93.51
71109;BME280;59614;51.012;-1.648;2023-02-01T07:20:55;101689.56;;;4.34;94.05
71109;BME280;59614;51.012;-1.648;2023-02-01T07:23:21;101686.09;;;4.35;94.29
71109;BME280;59614;51.012;-1.648;2023-02-01T07:25:47;101687.63;;;4.28;93.99
71109;BME280;59614;51.012;-1.648;2023-02-01T07:28:12;101697.41;;;4.34;94.57
71109;BME280;59614;51.012;-1.648;2023-02-01T07:30:37;101696.47;;;4.33;94.60
71109;BME280;59614;51.012;-1.648;2023-02-01T07:33:03;101702.53;;;4.31;94.81
71109;BME280;59614;51.012;-1.648;2023-02-01T07:35:29;101698.38;;;4.38;94.70
71109;BME280;59614;51.012;-1.648;2023-02-01T07:37:54;101696.72;;;4.41;93.89
71109;BME280;59614;51.012;-1.648;2023-02-01T07:40:20;101706.25;;;4.39;94.13
71109;BME280;59614;51.012;-1.648;2023-02-01T07:42:50;101714.75;;;4.32;94.63
71109;BME280;59614;51.012;-1.648;2023-02-01T07:45:15;101718.44;;;4.39;94.14
71109;BME280;59614;51.012;-1.648;2023-02-01T07:47:41;101716.78;;;4.42;93.83
71109;BME280;59614;51.012;-1.648;2023-02-01T07:50:07;101716.19;;;4.51;93.69
71109;BME280;59614;51.012;-1.648;2023-02-01T07:52:32;101721.38;;;4.50;93.49
71109;BME280;59614;51.012;-1.648;2023-02-01T07:54:58;101711.66;;;4.45;93.35
71109;BME280;59614;51.012;-1.648;2023-02-01T07:57:23;101703.78;;;4.44;92.65
71109;BME280;59614;51.012;-1.648;2023-02-01T07:59:49;101712.97;;;4.31;94.18
71109;BME280;59614;51.012;-1.648;2023-02-01T08:02:33;101704.41;;;4.35;93.94
71109;BME280;59614;51.012;-1.648;2023-02-01T08:04:58;101708.78;;;4.36;93.68
71109;BME280;59614;51.012;-1.648;2023-02-01T08:07:23;101708.38;;;4.53;92.79
71109;BME280;59614;51.012;-1.648;2023-02-01T08:09:49;101702.88;;;4.43;93.05
71109;BME280;59614;51.012;-1.648;2023-02-01T08:12:14;101697.50;;;4.37;93.22
71109;BME280;59614;51.012;-1.648;2023-02-01T08:14:40;101697.78;;;4.48;92.83
71109;BME280;59614;51.012;-1.648;2023-02-01T08:17:06;101707.50;;;4.52;92.92
71109;BME280;59614;51.012;-1.648;2023-02-01T08:19:31;101708.75;;;4.65;92.69
71109;BME280;59614;51.012;-1.648;2023-02-01T08:21:57;101705.72;;;4.82;91.63
71109;BME280;59614;51.012;-1.648;2023-02-01T08:24:24;101718.69;;;4.77;91.84
71109;BME280;59614;51.012;-1.648;2023-02-01T08:26:50;101711.53;;;4.71;91.60
71109;BME280;59614;51.012;-1.648;2023-02-01T08:29:15;101709.53;;;4.93;91.33
71109;BME280;59614;51.012;-1.648;2023-02-01T08:31:41;101718.97;;;4.88;91.53
71109;BME280;59614;51.012;-1.648;2023-02-01T08:34:08;101716.88;;;5.06;90.43
71109;BME280;59614;51.012;-1.648;2023-02-01T08:36:34;101717.13;;;4.84;91.47
71109;BME280;59614;51.012;-1.648;2023-02-01T08:39:00;101702.97;;;4.77;92.52
71109;BME280;59614;51.012;-1.648;2023-02-01T08:41:28;101718.63;;;4.75;92.58
71109;BME280;59614;51.012;-1.648;2023-02-01T08:43:55;101727.44;;;4.79;92.82
71109;BME280;59614;51.012;-1.648;2023-02-01T08:46:21;101722.63;;;4.94;92.44
71109;BME280;59614;51.012;-1.648;2023-02-01T08:48:47;101728.34;;;4.79;92.78
71109;BME280;59614;51.012;-1.648;2023-02-01T08:51:14;101727.00;;;4.94;92.61
71109;BME280;59614;51.012;-1.648;2023-02-01T08:53:40;101730.38;;;4.90;92.68
71109;BME280;59614;51.012;-1.648;2023-02-01T08:56:07;101733.19;;;4.98;92.30
71109;BME280;59614;51.012;-1.648;2023-02-01T08:58:33;101743.41;;;4.88;92.92
71109;BME280;59614;51.012;-1.648;2023-02-01T09:01:07;101744.53;;;4.98;92.70
71109;BME280;59614;51.012;-1.648;2023-02-01T09:03:33;101743.16;;;5.11;92.67
71109;BME280;59614;51.012;-1.648;2023-02-01T09:06:03;101748.03;;;5.31;92.16
71109;BME280;59614;51.012;-1.648;2023-02-01T09:08:29;101743.06;;;5.41;91.79
71109;BME280;59614;51.012;-1.648;2023-02-01T09:11:01;101743.69;;;5.65;91.28
71109;BME280;59614;51.012;-1.648;2023-02-01T09:13:28;101738.56;;;5.69;90.69
71109;BME280;59614;51.012;-1.648;2023-02-01T09:15:53;101741.13;;;6.03;90.20
71109;BME280;59614;51.012;-1.648;2023-02-01T09:18:19;101737.63;;;6.02;90.30
71109;BME280;59614;51.012;-1.648;2023-02-01T09:20:44;101750.34;;;6.24;89.41
71109;BME280;59614;51.012;-1.648;2023-02-01T09:23:10;101745.31;;;6.33;88.15
71109;BME280;59614;51.012;-1.648;2023-02-01T09:25:37;101747.66;;;6.62;88.15
71109;BME280;59614;51.012;-1.648;2023-02-01T09:28:03;101752.09;;;6.64;87.26
71109;BME280;59614;51.012;-1.648;2023-02-01T09:30:35;101752.81;;;6.57;87.32
71109;BME280;59614;51.012;-1.648;2023-02-01T09:33:00;101763.88;;;6.44;87.86
71109;BME280;59614;51.012;-1.648;2023-02-01T09:35:26;101762.19;;;6.46;87.45
71109;BME280;59614;51.012;-1.648;2023-02-01T09:37:54;101767.47;;;6.89;87.31
71109;BME280;59614;51.012;-1.648;2023-02-01T09:40:20;101766.88;;;7.02;86.42
71109;BME280;59614;51.012;-1.648;2023-02-01T09:43:05;101768.63;;;7.49;83.85
71109;BME280;59614;51.012;-1.648;2023-02-01T09:48:30;101771.84;;;7.85;83.88
71109;BME280;59614;51.012;-1.648;2023-02-01T09:50:59;101769.25;;;7.86;83.30
71109;BME280;59614;51.012;-1.648;2023-02-01T09:53:37;101778.16;;;7.96;82.25
71109;BME280;59614;51.012;-1.648;2023-02-01T09:56:13;101782.56;;;7.96;82.63
71109;BME280;59614;51.012;-1.648;2023-02-01T09:58:55;101773.16;;;8.12;82.28
71109;BME280;59614;51.012;-1.648;2023-02-01T10:01:24;101779.78;;;7.88;82.80
71109;BME280;59614;51.012;-1.648;2023-02-01T10:04:02;101782.09;;;8.22;81.91
71109;BME280;59614;51.012;-1.648;2023-02-01T10:09:34;101776.25;;;9.10;78.03
71109;BME280;59614;51.012;-1.648;2023-02-01T10:25:44;101753.88;;;8.74;80.92
71109;BME280;59614;51.012;-1.648;2023-02-01T10:27:44;101759.16;;;8.74;80.09
71109;BME280;59614;51.012;-1.648;2023-02-01T10:30:21;101748.63;;;8.74;80.87
71109;BME280;59614;51.012;-1.648;2023-02-01T10:32:50;101753.19;;;8.89;80.98
71109;BME280;59614;51.012;-1.648;2023-02-01T10:35:22;101758.69;;;9.09;80.32
71109;BME280;59614;51.012;-1.648;2023-02-01T10:37:49;101750.81;;;9.12;79.48
71109;BME280;59614;51.012;-1.648;2023-02-01T10:40:23;101753.56;;;9.22;78.62
71109;BME280;59614;51.012;-1.648;2023-02-01T10:42:56;101752.34;;;8.92;80.32
71109;BME280;59614;51.012;-1.648;2023-02-01T10:45:25;101753.59;;;9.26;79.71
71109;BME280;59614;51.012;-1.648;2023-02-01T10:47:53;101751.88;;;9.32;78.70
71109;BME280;59614;51.012;-1.648;2023-02-01T10:51:00;101753.16;;;9.72;78.03
71109;BME280;59614;51.012;-1.648;2023-02-01T10:53:34;101755.50;;;9.41;78.03
71109;BME280;59614;51.012;-1.648;2023-02-01T10:56:08;101753.78;;;9.43;78.32
71109;BME280;59614;51.012;-1.648;2023-02-01T10:58:35;101758.44;;;9.76;77.53
71109;BME280;59614;51.012;-1.648;2023-02-01T11:01:10;101760.31;;;9.91;76.68
71109;BME280;59614;51.012;-1.648;2023-02-01T11:03:54;101761.91;;;9.71;77.06
71109;BME280;59614;51.012;-1.648;2023-02-01T11:06:36;101763.91;;;9.97;76.24
71109;BME280;59614;51.012;-1.648;2023-02-01T11:11:58;101760.47;;;10.14;75.55
71109;BME280;59614;51.012;-1.648;2023-02-01T11:16:53;101743.50;;;9.73;75.82
71109;BME280;59614;51.012;-1.648;2023-02-01T11:19:20;101742.72;;;9.91;75.15
71109;BME280;59614;51.012;-1.648;2023-02-01T11:21:57;101753.00;;;9.57;76.24
71109;BME280;59614;51.012;-1.648;2023-02-01T11:24:27;101752.53;;;10.06;75.30
71109;BME280;59614;51.012;-1.648;2023-02-01T11:26:56;101753.66;;;10.41;74.40
71109;BME280;59614;51.012;-1.648;2023-02-01T11:29:22;101750.81;;;10.16;74.33
71109;BME280;59614;51.012;-1.648;2023-02-01T11:31:56;101756.38;;;10.52;73.61
71109;BME280;59614;51.012;-1.648;2023-02-01T11:34:26;101741.44;;;10.61;72.65
71109;BME280;59614;51.012;-1.648;2023-02-01T11:36:58;101758.06;;;10.43;73.51
71109;BME280;59614;51.012;-1.648;2023-02-01T11:39:30;101756.06;;;10.10;74.40
71109;BME280;59614;51.012;-1.648;2023-02-01T11:44:34;101745.38;;;9.89;75.39
71109;BME280;59614;51.012;-1.648;2023-02-01T11:47:23;101747.06;;;9.81;75.92
71109;BME280;59614;51.012;-1.648;2023-02-01T11:49:57;101740.13;;;9.93;75.01
71109;BME280;59614;51.012;-1.648;2023-02-01T12:14:51;101741.44;;;10.60;73.18
71109;BME280;59614;51.012;-1.648;2023-02-01T12:26:40;101749.63;;;11.40;69.31
71109;BME280;59614;51.012;-1.648;2023-02-01T12:29:07;101743.22;;;10.67;71.29
71109;BME280;59614;51.012;-1.648;2023-02-01T12:37:10;101724.31;;;9.94;71.86
71109;BME280;59614;51.012;-1.648;2023-02-01T12:42:25;101731.34;;;9.94;72.64
71109;BME280;59614;51.012;-1.648;2023-02-01T12:44:56;101734.16;;;10.22;72.64
71109;BME280;59614;51.012;-1.648;2023-02-01T12:47:51;101719.41;;;10.53;71.37
71109;BME280;59614;51.012;-1.648;2023-02-01T12:50:26;101725.72;;;11.00;70.93
71109;BME280;59614;51.012;-1.648;2023-02-01T12:53:06;101725.69;;;10.86;70.65
71109;BME280;59614;51.012;-1.648;2023-02-01T12:55:36;101716.81;;;10.65;70.32
71109;BME280;59614;51.012;-1.648;2023-02-01T12:58:11;101719.34;;;10.39;71.80
71109;BME280;59614;51.012;-1.648;2023-02-01T13:00:47;101718.25;;;10.08;72.27
71109;BME280;59614;51.012;-1.648;2023-02-01T13:06:02;101715.47;;;9.87;73.11
71109;BME280;59614;51.012;-1.648;2023-02-01T13:08:44;101716.25;;;9.77;73.66
71109;BME280;59614;51.012;-1.648;2023-02-01T13:14:17;101734.69;;;9.74;74.20
71109;BME280;59614;51.012;-1.648;2023-02-01T13:16:51;101734.59;;;9.60;74.31
71109;BME280;59614;51.012;-1.648;2023-02-01T13:22:13;101714.53;;;9.81;74.36
71109;BME280;59614;51.012;-1.648;2023-02-01T13:24:44;101722.47;;;9.82;74.82
71109;BME280;59614;51.012;-1.648;2023-02-01T13:27:14;101719.63;;;9.56;74.91
71109;BME280;59614;51.012;-1.648;2023-02-01T13:35:46;101715.22;;;9.56;75.53
71109;BME280;59614;51.012;-1.648;2023-02-01T13:43:48;101728.25;;;9.39;75.33
71109;BME280;59614;51.012;-1.648;2023-02-01T13:46:14;101721.25;;;9.41;74.88
71109;BME280;59614;51.012;-1.648;2023-02-01T13:48:56;101724.84;;;9.50;75.19
71109;BME280;59614;51.012;-1.648;2023-02-01T13:51:33;101726.44;;;9.32;75.53
71109;BME280;59614;51.012;-1.648;2023-02-01T13:53:59;101722.81;;;9.21;76.00
71109;BME280;59614;51.012;-1.648;2023-02-01T13:56:25;101711.56;;;9.40;75.71
71109;BME280;59614;51.012;-1.648;2023-02-01T13:58:51;101726.22;;;9.12;76.82
71109;BME280;59614;51.012;-1.648;2023-02-01T14:03:51;101709.69;;;9.25;76.31
71109;BME280;59614;51.012;-1.648;2023-02-01T14:17:32;101712.31;;;9.27;75.78
71109;BME280;59614;51.012;-1.648;2023-02-01T14:19:33;101718.31;;;9.12;75.58
71109;BME280;59614;51.012;-1.648;2023-02-01T14:22:01;101714.75;;;9.04;76.42
71109;BME280;59614;51.012;-1.648;2023-02-01T14:24:51;101715.84;;;9.29;75.81
71109;BME280;59614;51.012;-1.648;2023-02-01T14:27:22;101721.03;;;9.20;75.79
71109;BME280;59614;51.012;-1.648;2023-02-01T14:29:53;101720.06;;;9.08;75.88
71109;BME280;59614;51.012;-1.648;2023-02-01T14:32:43;101716.59;;;9.14;75.35
71109;BME280;59614;51.012;-1.648;2023-02-01T14:35:20;101719.53;;;9.43;75.71
71109;BME280;59614;51.012;-1.648;2023-02-01T14:37:51;101707.88;;;9.21;75.80
71109;BME280;59614;51.012;-1.648;2023-02-01T14:40:25;101703.47;;;9.17;75.84
71109;BME280;59614;51.012;-1.648;2023-02-01T14:42:52;101711.56;;;9.40;75.81
71109;BME280;59614;51.012;-1.648;2023-02-01T14:47:45;101706.25;;;9.34;75.61
71109;BME280;59614;51.012;-1.648;2023-02-01T14:50:27;101716.84;;;9.42;75.65
71109;BME280;59614;51.012;-1.648;2023-02-01T15:00:57;101706.19;;;9.28;76.02
71109;BME280;59614;51.012;-1.648;2023-02-01T15:06:29;101711.19;;;9.00;76.28
71109;BME280;59614;51.012;-1.648;2023-02-01T15:11:27;101715.41;;;8.87;76.94
71109;BME280;59614;51.012;-1.648;2023-02-01T15:13:53;101713.66;;;8.85;76.57
71109;BME280;59614;51.012;-1.648;2023-02-01T15:16:22;101718.97;;;8.91;77.13
71109;BME280;59614;51.012;-1.648;2023-02-01T15:18:48;101724.22;;;8.88;77.58
71109;BME280;59614;51.012;-1.648;2023-02-01T15:21:20;101723.59;;;9.12;76.94
71109;BME280;59614;51.012;-1.648;2023-02-01T15:23:46;101721.72;;;9.03;76.59
71109;BME280;59614;51.012;-1.648;2023-02-01T15:26:27;101717.38;;;9.05;76.51
71109;BME280;59614;51.012;-1.648;2023-02-01T15:28:54;101720.97;;;9.14;76.57
71109;BME280;59614;51.012;-1.648;2023-02-01T15:31:39;101720.06;;;9.08;76.83